Time;durP1;ratioP1;P1;durP2;ratioP2;P2;SDS_P1;SDS_P2;PMS_P1;PMS_P2;Temp;Humidity;BMP_temperature;BMP_pressure;BME280_temperature;BME280_humidity;BME280_pressure;Samples;Min_cycle;Max_cycle;Signal;HPM_P1;HPM_P2
2022/01/05 00:01:26;;;;;;;4.10;1.73;;;;;5.00;99358.00;;;;5028105;28;20233;-70
2022/01/05 00:04:13;;;;;;;6.57;1.70;;;;;5.00;99358.00;;;;5028615;28;20221;-70
2022/01/05 00:06:59;;;;;;;5.53;1.63;;;;;5.00;99351.00;;;;5024780;28;20229;-69
2022/01/05 00:09:45;;;;;;;3.97;1.60;;;;;5.00;99353.00;;;;5017498;28;20234;-70
2022/01/05 00:12:33;;;;;;;4.43;1.60;;;;;5.00;99356.00;;;;5026588;28;20774;-70
2022/01/05 00:15:19;;;;;;;6.03;1.60;;;;;5.00;99349.00;;;;5027595;28;20240;-70
2022/01/05 00:18:06;;;;;;;2.30;1.73;;;;;5.00;99337.00;;;;5028235;28;21744;-70
2022/01/05 00:20:52;;;;;;;4.70;1.70;;;;;5.00;99351.00;;;;5020727;28;20232;-70
2022/01/05 00:23:39;;;;;;;5.63;1.80;;;;;5.00;99351.00;;;;5028315;28;20381;-70
2022/01/05 00:26:27;;;;;;;4.43;2.00;;;;;5.00;99341.00;;;;5028117;28;20237;-70
2022/01/05 00:29:15;;;;;;;8.43;2.00;;;;;5.10;99351.00;;;;5028613;28;20233;-69
2022/01/05 00:32:02;;;;;;;5.23;1.77;;;;;5.00;99346.00;;;;5021916;28;20236;-69
2022/01/05 00:34:48;;;;;;;5.00;1.90;;;;;5.00;99366.00;;;;5020453;28;20229;-70
2022/01/05 00:37:34;;;;;;;6.60;1.70;;;;;4.90;99348.00;;;;5027646;28;20792;-70
2022/01/05 00:40:21;;;;;;;4.47;1.80;;;;;5.00;99356.00;;;;5019428;28;20338;-70
2022/01/05 00:43:07;;;;;;;3.13;1.70;;;;;4.80;99354.00;;;;5021457;28;20352;-68
2022/01/05 00:45:55;;;;;;;4.70;1.60;;;;;4.90;99345.00;;;;5021951;28;20240;-70
2022/01/05 00:48:42;;;;;;;2.93;1.50;;;;;4.90;99352.00;;;;5027594;28;20320;-70
2022/01/05 00:51:28;;;;;;;3.03;1.90;;;;;4.90;99349.00;;;;5018752;28;20319;-70
2022/01/05 00:54:14;;;;;;;4.87;1.80;;;;;4.80;99340.00;;;;5027540;28;20236;-70
2022/01/05 00:57:01;;;;;;;2.57;1.50;;;;;4.80;99341.00;;;;5021153;28;20720;-71
2022/01/05 00:59:47;;;;;;;4.03;1.70;;;;;4.80;99345.00;;;;5019509;28;20229;-72
2022/01/05 01:02:34;;;;;;;5.83;1.80;;;;;4.90;99353.00;;;;5018181;28;20241;-71
2022/01/05 01:05:21;;;;;;;6.20;1.80;;;;;4.80;99348.00;;;;5009716;28;20254;-70
2022/01/05 01:08:08;;;;;;;4.70;1.70;;;;;4.90;99356.00;;;;5020624;28;20234;-70
2022/01/05 01:10:55;;;;;;;11.63;2.30;;;;;4.80;99356.00;;;;5026710;28;20236;-69
2022/01/05 01:13:43;;;;;;;8.63;2.17;;;;;4.70;99357.00;;;;5019149;28;20252;-71
2022/01/05 01:16:29;;;;;;;3.97;1.80;;;;;4.60;99367.00;;;;5026585;28;20256;-70
2022/01/05 01:19:17;;;;;;;10.07;2.40;;;;;4.70;99362.00;;;;5027102;28;20598;-68
2022/01/05 01:22:03;;;;;;;6.47;1.77;;;;;4.80;99361.00;;;;5020805;28;20256;-70
2022/01/05 01:24:50;;;;;;;3.80;1.80;;;;;4.70;99365.00;;;;5021513;28;20276;-70
2022/01/05 01:27:37;;;;;;;6.53;1.67;;;;;4.70;99376.00;;;;5024431;28;20237;-71
2022/01/05 01:30:24;;;;;;;15.13;2.10;;;;;4.70;99366.00;;;;5024058;28;20295;-70
2022/01/05 01:33:10;;;;;;;11.10;2.40;;;;;4.60;99367.00;;;;5026912;28;20229;-69
2022/01/05 01:35:57;;;;;;;3.37;1.90;;;;;4.60;99370.00;;;;5020341;28;20248;-71
2022/01/05 01:38:44;;;;;;;4.70;1.83;;;;;4.60;99382.00;;;;5018439;28;20934;-71
2022/01/05 01:41:30;;;;;;;6.83;2.57;;;;;4.60;99381.00;;;;5013712;28;20229;-71
2022/01/05 01:44:17;;;;;;;6.93;1.87;;;;;4.70;99383.00;;;;5018132;28;20228;-70
2022/01/05 01:47:04;;;;;;;4.50;2.10;;;;;4.50;99378.00;;;;5022438;28;20858;-70
2022/01/05 01:49:50;;;;;;;6.07;2.10;;;;;4.60;99372.00;;;;5019375;28;20300;-70
2022/01/05 01:52:38;;;;;;;6.47;2.27;;;;;4.50;99383.00;;;;5022553;28;20237;-70
2022/01/05 01:55:25;;;;;;;6.07;2.13;;;;;4.40;99388.00;;;;5024602;28;20703;-70
2022/01/05 01:58:11;;;;;;;8.77;1.80;;;;;4.40;99369.00;;;;5019673;28;20236;-70
2022/01/05 02:00:57;;;;;;;4.67;1.70;;;;;4.50;99390.00;;;;5016923;28;20274;-70
2022/01/05 02:03:44;;;;;;;6.07;1.80;;;;;4.30;99386.00;;;;5026662;28;20264;-70
2022/01/05 02:06:31;;;;;;;5.80;1.87;;;;;4.40;99388.00;;;;5024660;28;20801;-69
2022/01/05 02:09:19;;;;;;;2.67;1.60;;;;;4.20;99389.00;;;;5026211;28;20229;-70
2022/01/05 02:12:07;;;;;;;3.27;1.80;;;;;4.00;99393.00;;;;5020880;28;20809;-70
2022/01/05 02:14:53;;;;;;;4.47;2.00;;;;;4.10;99396.00;;;;5019420;28;20327;-70
2022/01/05 02:17:52;;;;;;;2.17;1.50;;;;;4.20;99389.00;;;;5022650;28;20240;-70
2022/01/05 02:20:38;;;;;;;3.03;1.50;;;;;4.10;99398.00;;;;5024863;28;20375;-71
2022/01/05 02:23:25;;;;;;;3.60;1.83;;;;;4.00;99401.00;;;;5025484;28;20300;-71
2022/01/05 02:26:12;;;;;;;6.43;1.83;;;;;3.80;99395.00;;;;5025727;28;20229;-71
2022/01/05 02:28:59;;;;;;;3.83;1.90;;;;;4.00;99395.00;;;;5019645;28;20222;-70
2022/01/05 02:31:46;;;;;;;4.70;1.57;;;;;4.10;99403.00;;;;5022152;28;20278;-71
2022/01/05 02:34:32;;;;;;;4.87;1.77;;;;;3.80;99400.00;;;;5025874;28;20253;-70
2022/01/05 02:37:18;;;;;;;3.67;2.00;;;;;3.70;99406.00;;;;5022096;28;20237;-70
2022/01/05 02:40:08;;;;;;;5.13;2.00;;;;;3.70;99399.00;;;;5025511;28;20331;-71
2022/01/05 02:42:55;;;;;;;4.33;1.80;;;;;3.70;99392.00;;;;5018409;28;20237;-71
2022/01/05 02:45:41;;;;;;;4.20;1.90;;;;;3.70;99410.00;;;;5025395;28;20372;-70
2022/01/05 02:48:27;;;;;;;3.50;1.97;;;;;3.70;99408.00;;;;5025412;28;20607;-70
2022/01/05 02:51:14;;;;;;;8.10;1.87;;;;;3.60;99402.00;;;;5025535;28;20608;-70
2022/01/05 02:54:01;;;;;;;3.70;1.37;;;;;3.50;99401.00;;;;5019582;28;20365;-68
2022/01/05 02:56:49;;;;;;;4.60;1.80;;;;;3.50;99401.00;;;;5017963;28;20866;-72
2022/01/05 02:59:36;;;;;;;4.00;2.30;;;;;3.60;99406.00;;;;5025157;28;20233;-70
2022/01/05 03:02:23;;;;;;;5.90;2.03;;;;;3.70;99407.00;;;;5018606;28;20236;-70
2022/01/05 03:05:11;;;;;;;18.10;1.90;;;;;3.70;99423.00;;;;5021242;28;20395;-72
2022/01/05 03:07:57;;;;;;;6.63;1.90;;;;;3.70;99418.00;;;;5021811;28;20242;-72
2022/01/05 03:10:43;;;;;;;4.43;2.03;;;;;3.80;99428.00;;;;5021550;28;20232;-72
2022/01/05 03:13:30;;;;;;;7.90;2.20;;;;;3.90;99436.00;;;;5021186;28;20335;-71
2022/01/05 03:16:17;;;;;;;4.57;1.97;;;;;3.90;99432.00;;;;5018901;28;20396;-71
2022/01/05 03:19:03;;;;;;;5.63;2.00;;;;;3.80;99430.00;;;;5028901;28;20597;-71
2022/01/05 03:21:50;;;;;;;8.77;2.13;;;;;3.80;99422.00;;;;5021428;28;20315;-72
2022/01/05 03:24:36;;;;;;;5.23;2.07;;;;;3.80;99384.00;;;;5024491;28;20299;-71
2022/01/05 03:27:22;;;;;;;6.03;1.93;;;;;3.90;99424.00;;;;5029217;28;20232;-72
2022/01/05 03:30:11;;;;;;;5.27;2.13;;;;;3.90;99443.00;;;;5029406;28;20272;-71
2022/01/05 03:33:11;;;;;;;8.73;2.00;;;;;3.70;99446.00;;;;5017613;28;20249;-72
2022/01/05 03:35:57;;;;;;;12.57;2.03;;;;;3.70;99453.00;;;;5022901;28;20350;-71
2022/01/05 03:38:43;;;;;;;8.93;2.37;;;;;3.60;99459.00;;;;5028624;28;20740;-70
2022/01/05 03:41:29;;;;;;;7.07;2.20;;;;;3.60;99467.00;;;;5028735;28;20381;-71
2022/01/05 03:44:15;;;;;;;7.17;2.10;;;;;3.50;99456.00;;;;5029294;28;20611;-71
2022/01/05 03:47:03;;;;;;;3.80;2.00;;;;;3.50;99463.00;;;;5026435;28;20612;-71
2022/01/05 03:49:50;;;;;;;6.50;2.30;;;;;3.40;99467.00;;;;5017185;28;20230;-71
2022/01/05 03:52:36;;;;;;;6.97;2.33;;;;;3.40;99459.00;;;;5019002;28;20297;-71
2022/01/05 03:55:22;;;;;;;4.50;2.47;;;;;3.30;99469.00;;;;5029021;28;20339;-71
2022/01/05 03:58:09;;;;;;;7.60;2.90;;;;;3.40;99471.00;;;;5028238;28;20268;-71
2022/01/05 04:00:55;;;;;;;6.63;2.50;;;;;3.50;99478.00;;;;5022017;28;20229;-70
2022/01/05 04:03:43;;;;;;;6.80;2.43;;;;;3.50;99478.00;;;;5018670;28;20281;-70
2022/01/05 04:06:29;;;;;;;6.27;2.53;;;;;3.50;99483.00;;;;5026391;28;20229;-72
2022/01/05 04:09:15;;;;;;;4.97;2.40;;;;;3.60;99485.00;;;;5027510;28;20226;-71
2022/01/05 04:12:01;;;;;;;11.53;2.67;;;;;3.60;99493.00;;;;5016500;28;20237;-71
2022/01/05 04:14:48;;;;;;;6.83;2.47;;;;;3.60;99499.00;;;;5028095;28;20239;-72
2022/01/05 04:17:34;;;;;;;6.00;2.73;;;;;3.70;99498.00;;;;5027657;28;20366;-71
2022/01/05 04:20:22;;;;;;;5.80;2.50;;;;;3.60;99503.00;;;;5027292;28;20224;-71
2022/01/05 04:23:08;;;;;;;7.67;2.53;;;;;3.50;99502.00;;;;5021105;28;20246;-71
2022/01/05 04:25:55;;;;;;;9.53;2.97;;;;;3.60;99512.00;;;;5016843;28;20300;-71
2022/01/05 04:28:41;;;;;;;8.87;2.50;;;;;3.50;99505.00;;;;5027859;28;20272;-69
2022/01/05 04:31:27;;;;;;;8.73;2.87;;;;;3.60;99504.00;;;;5027449;28;20236;-70
2022/01/05 04:34:14;;;;;;;6.70;2.17;;;;;3.40;99502.00;;;;5028372;28;20229;-71
2022/01/05 04:37:22;;;;;;;7.97;2.43;;;;;3.40;99501.00;;;;5024252;28;20240;-71
2022/01/05 04:40:11;;;;;;;6.50;2.60;;;;;3.30;99506.00;;;;5027941;28;20299;-71
2022/01/05 04:42:57;;;;;;;3.63;2.10;;;;;3.30;99510.00;;;;5021257;28;20308;-70
2022/01/05 04:45:43;;;;;;;7.90;2.40;;;;;3.20;99505.00;;;;5019902;28;20640;-70
2022/01/05 04:48:30;;;;;;;7.23;2.40;;;;;3.20;99494.00;;;;5025033;28;20229;-70
2022/01/05 04:51:16;;;;;;;9.17;2.43;;;;;3.40;99491.00;;;;5022491;28;20312;-70
2022/01/05 04:54:03;;;;;;;5.97;2.17;;;;;3.30;99502.00;;;;5021742;28;20229;-71
2022/01/05 04:56:50;;;;;;;8.53;2.50;;;;;3.40;99496.00;;;;5020371;28;20261;-71
2022/01/05 04:59:36;;;;;;;6.60;2.37;;;;;3.20;99497.00;;;;5027652;28;20228;-68
2022/01/05 05:02:22;;;;;;;8.80;2.30;;;;;3.30;99505.00;;;;5020799;28;20586;-70
2022/01/05 05:05:10;;;;;;;7.33;2.33;;;;;3.20;99508.00;;;;5023835;28;20230;-71
2022/01/05 05:07:57;;;;;;;6.90;2.30;;;;;3.30;99502.00;;;;5027854;28;20233;-72
2022/01/05 05:10:45;;;;;;;7.53;2.47;;;;;3.20;99506.00;;;;5019801;28;20381;-72
2022/01/05 05:13:32;;;;;;;10.43;2.50;;;;;3.40;99496.00;;;;5019024;28;20829;-69
2022/01/05 05:16:18;;;;;;;4.77;2.13;;;;;3.30;99496.00;;;;5027185;28;20225;-71
2022/01/05 05:19:04;;;;;;;6.43;2.17;;;;;3.30;99500.00;;;;5021755;28;20336;-70
2022/01/05 05:21:50;;;;;;;7.80;2.10;;;;;3.20;99499.00;;;;5026576;28;20234;-71
2022/01/05 05:24:36;;;;;;;7.77;2.33;;;;;3.30;99501.00;;;;5025438;28;20229;-71
2022/01/05 05:27:25;;;;;;;3.67;2.00;;;;;3.20;99488.00;;;;5026941;28;20238;-70
2022/01/05 05:30:12;;;;;;;4.97;2.13;;;;;3.00;99494.00;;;;5022863;28;20230;-71
2022/01/05 05:32:58;;;;;;;8.40;1.90;;;;;3.10;99491.00;;;;5018500;28;20615;-70
2022/01/05 05:35:45;;;;;;;15.00;2.67;;;;;2.90;99494.00;;;;5019356;28;20284;-72
2022/01/05 05:38:31;;;;;;;4.57;2.17;;;;;3.00;99498.00;;;;5026380;28;20230;-71
2022/01/05 05:41:17;;;;;;;12.50;2.07;;;;;3.00;99513.00;;;;5026748;28;20233;-71
2022/01/05 05:44:05;;;;;;;3.70;2.17;;;;;3.00;99518.00;;;;5021386;28;20244;-70
2022/01/05 05:46:52;;;;;;;8.93;2.47;;;;;2.90;99524.00;;;;5024474;28;20258;-68
2022/01/05 05:49:38;;;;;;;7.67;2.10;;;;;3.00;99518.00;;;;5026583;28;20237;-72
2022/01/05 05:52:24;;;;;;;6.47;2.20;;;;;3.00;99518.00;;;;5022179;28;20641;-71
2022/01/05 05:55:11;;;;;;;13.40;2.30;;;;;2.90;99523.00;;;;5020965;28;20295;-71
2022/01/05 05:58:00;;;;;;;8.97;2.50;;;;;3.00;99510.00;;;;5034828;28;20289;-70
2022/01/05 06:00:48;;;;;;;11.33;2.47;;;;;2.90;99520.00;;;;5026748;28;20356;-70
2022/01/05 06:03:35;;;;;;;15.00;2.70;;;;;2.90;99530.00;;;;5017952;28;20304;-71
2022/01/05 06:06:21;;;;;;;8.67;2.67;;;;;3.10;99520.00;;;;5023550;28;20657;-71
2022/01/05 06:09:07;;;;;;;8.10;2.27;;;;;3.10;99522.00;;;;5026390;28;20254;-71
2022/01/05 06:11:53;;;;;;;7.63;2.10;;;;;3.10;99519.00;;;;5013526;28;20253;-71
2022/01/05 06:14:39;;;;;;;6.27;2.27;;;;;3.20;99526.00;;;;5025897;28;20885;-70
2022/01/05 06:17:27;;;;;;;6.87;2.07;;;;;3.20;99521.00;;;;5025612;28;20294;-71
2022/01/05 06:20:13;;;;;;;7.03;2.30;;;;;3.30;99540.00;;;;5026469;28;20238;-70
2022/01/05 06:22:59;;;;;;;8.33;1.87;;;;;3.20;99547.00;;;;5021640;28;20241;-71
2022/01/05 06:25:46;;;;;;;8.80;2.60;;;;;3.20;99554.00;;;;5015010;28;20233;-70
2022/01/05 06:28:32;;;;;;;9.93;2.27;;;;;3.40;99550.00;;;;5024416;28;20259;-70
2022/01/05 06:31:18;;;;;;;11.67;3.00;;;;;3.40;99554.00;;;;5025758;28;20636;-70
2022/01/05 06:34:06;;;;;;;8.03;2.20;;;;;3.40;99550.00;;;;5026497;28;20328;-70
2022/01/05 06:36:53;;;;;;;9.93;2.50;;;;;3.50;99534.00;;;;5026004;28;20238;-70
2022/01/05 06:39:40;;;;;;;9.73;2.33;;;;;3.60;99546.00;;;;5025823;28;20242;-71
2022/01/05 06:42:26;;;;;;;10.93;2.37;;;;;3.70;99549.00;;;;5024550;28;20250;-71
2022/01/05 06:45:13;;;;;;;9.53;2.00;;;;;3.60;99557.00;;;;5025780;28;20380;-70
2022/01/05 06:47:59;;;;;;;7.33;2.10;;;;;3.70;99562.00;;;;5019663;28;20238;-71
2022/01/05 06:50:47;;;;;;;8.10;2.73;;;;;3.60;99550.00;;;;5016628;28;20241;-70
2022/01/05 06:53:34;;;;;;;8.60;2.67;;;;;3.60;99565.00;;;;5025382;28;20344;-70
2022/01/05 06:56:20;;;;;;;8.10;2.23;;;;;3.60;99568.00;;;;5025631;28;20335;-71
2022/01/05 06:59:06;;;;;;;9.57;2.53;;;;;3.70;99562.00;;;;5025713;28;20629;-70
2022/01/05 07:01:52;;;;;;;4.23;1.93;;;;;3.70;99552.00;;;;5013449;28;20324;-71
2022/01/05 07:04:39;;;;;;;7.40;2.23;;;;;3.50;99555.00;;;;5024787;28;20234;-70
2022/01/05 07:07:27;;;;;;;14.50;2.23;;;;;3.50;99566.00;;;;5025228;28;20236;-70
2022/01/05 07:10:13;;;;;;;9.53;2.30;;;;;3.70;99572.00;;;;5025486;28;20234;-70
2022/01/05 07:13:05;;;;;;;10.60;2.90;;;;;3.70;99565.00;;;;5020163;28;20360;-70
2022/01/05 07:15:51;;;;;;;8.23;2.50;;;;;3.70;99561.00;;;;5017062;28;20247;-71
2022/01/05 07:18:37;;;;;;;8.67;2.50;;;;;3.60;99561.00;;;;5024138;28;20258;-70
2022/01/05 07:21:24;;;;;;;9.60;3.27;;;;;3.60;99563.00;;;;5024484;28;20229;-71
2022/01/05 07:24:16;;;;;;;6.67;2.50;;;;;3.70;99569.00;;;;5023735;28;20229;-71
2022/01/05 07:27:02;;;;;;;8.90;2.30;;;;;3.80;99568.00;;;;5019466;28;20384;-70
2022/01/05 07:29:48;;;;;;;5.17;2.60;;;;;3.60;99576.00;;;;5023296;28;20237;-70
2022/01/05 07:32:35;;;;;;;8.27;2.47;;;;;3.70;99611.00;;;;5024937;28;20233;-69
2022/01/05 07:35:21;;;;;;;7.27;2.60;;;;;3.70;99607.00;;;;5022270;28;20228;-71
2022/01/05 07:38:07;;;;;;;5.77;2.53;;;;;3.80;99591.00;;;;5025262;28;20267;-71
2022/01/05 07:40:55;;;;;;;7.47;3.03;;;;;3.80;99606.00;;;;5018146;28;20311;-71
2022/01/05 07:43:41;;;;;;;9.23;2.60;;;;;3.80;99594.00;;;;5024935;28;20235;-71
2022/01/05 07:46:28;;;;;;;8.73;2.80;;;;;3.80;99592.00;;;;5024240;28;20318;-71
2022/01/05 07:49:14;;;;;;;7.40;2.90;;;;;3.80;99602.00;;;;5025413;28;20240;-70
2022/01/05 07:52:00;;;;;;;10.30;2.73;;;;;3.80;99600.00;;;;5017741;28;20308;-71
2022/01/05 07:54:46;;;;;;;10.03;2.93;;;;;3.90;99596.00;;;;5021114;28;20312;-71
2022/01/05 07:57:35;;;;;;;7.90;2.90;;;;;3.90;99607.00;;;;5023321;28;20605;-71
2022/01/05 08:00:21;;;;;;;15.00;2.90;;;;;3.80;99594.00;;;;5028557;28;20249;-70
2022/01/05 08:03:07;;;;;;;16.77;3.30;;;;;3.90;99599.00;;;;5019317;28;20234;-71
2022/01/05 08:05:54;;;;;;;5.20;3.13;;;;;4.10;99617.00;;;;5020500;28;20237;-71
2022/01/05 08:08:40;;;;;;;9.13;3.73;;;;;4.00;99592.00;;;;5025186;28;20290;-71
2022/01/05 08:11:27;;;;;;;11.63;3.50;;;;;4.10;99595.00;;;;5029695;28;20377;-70
2022/01/05 08:14:15;;;;;;;6.67;2.93;;;;;4.10;99593.00;;;;5023556;28;20228;-70
2022/01/05 08:17:01;;;;;;;14.57;3.13;;;;;4.10;99584.00;;;;5028166;28;20252;-70
2022/01/05 08:19:47;;;;;;;9.47;3.10;;;;;4.20;99596.00;;;;5027676;28;20266;-70
2022/01/05 08:22:34;;;;;;;6.67;2.60;;;;;4.20;99598.00;;;;5023372;28;20233;-70
2022/01/05 08:25:21;;;;;;;9.83;3.23;;;;;4.20;99599.00;;;;5026655;28;20231;-72
2022/01/05 08:28:08;;;;;;;13.93;3.17;;;;;4.30;99591.00;;;;5039212;28;20246;-71
2022/01/05 08:30:55;;;;;;;12.00;2.53;;;;;4.30;99612.00;;;;5021009;28;20240;-65
2022/01/05 08:33:42;;;;;;;8.60;2.90;;;;;4.20;99613.00;;;;5028018;28;20298;-70
2022/01/05 08:36:28;;;;;;;9.63;3.17;;;;;4.20;99599.00;;;;5027570;28;20348;-69
2022/01/05 08:39:15;;;;;;;8.73;3.30;;;;;4.30;99604.00;;;;5028552;28;20241;-69
2022/01/05 08:42:01;;;;;;;8.03;3.13;;;;;4.30;99593.00;;;;5021876;28;20594;-69
2022/01/05 08:44:47;;;;;;;7.43;2.70;;;;;4.20;99602.00;;;;5020081;28;20229;-73
2022/01/05 08:47:35;;;;;;;9.63;3.10;;;;;4.30;99605.00;;;;5026538;28;20296;-72
2022/01/05 08:50:24;;;;;;;11.97;3.70;;;;;4.30;99599.00;;;;5027731;28;20222;-69
2022/01/05 08:53:11;;;;;;;15.77;3.50;;;;;4.30;99584.00;;;;5023264;28;20380;-69
2022/01/05 08:55:57;;;;;;;15.10;3.87;;;;;4.30;99607.00;;;;5019628;28;20547;-68
2022/01/05 08:58:43;;;;;;;9.40;3.17;;;;;4.40;99605.00;;;;5019327;28;20303;-69
2022/01/05 09:01:29;;;;;;;10.53;3.40;;;;;4.50;99610.00;;;;5025483;28;20233;-69
2022/01/05 09:04:17;;;;;;;7.97;3.20;;;;;4.50;99616.00;;;;5020851;28;20245;-70
2022/01/05 09:07:04;;;;;;;9.43;3.60;;;;;4.50;99618.00;;;;5021858;28;20253;-69
2022/01/05 09:09:51;;;;;;;8.70;3.67;;;;;4.60;99620.00;;;;5027161;28;20730;-70
2022/01/05 09:12:37;;;;;;;10.67;3.43;;;;;4.60;99589.00;;;;5021295;28;20233;-69
2022/01/05 09:15:24;;;;;;;9.13;3.27;;;;;4.50;99614.00;;;;5025114;28;20233;-71
2022/01/05 09:18:10;;;;;;;13.57;3.77;;;;;4.60;99610.00;;;;5007126;28;20265;-72
2022/01/05 09:20:58;;;;;;;14.33;4.07;;;;;4.50;99608.00;;;;5003597;28;20330;-70
2022/01/05 09:23:44;;;;;;;13.27;4.10;;;;;4.50;99613.00;;;;4999671;28;20241;-72
2022/01/05 09:26:31;;;;;;;8.43;3.20;;;;;4.70;99612.00;;;;5008644;28;20257;-72
2022/01/05 09:29:17;;;;;;;11.33;3.40;;;;;4.60;99593.00;;;;5005072;28;20357;-72
2022/01/05 09:32:08;;;;;;;8.47;3.20;;;;;4.60;99616.00;;;;5019994;28;20283;-72
2022/01/05 09:34:54;;;;;;;18.67;3.73;;;;;4.40;99596.00;;;;5003187;28;20260;-72
2022/01/05 09:37:52;;;;;;;9.20;3.73;;;;;4.50;99605.00;;;;5007659;28;20229;-71
2022/01/05 09:43:51;;;;;;;8.80;2.67;;;;;4.50;99634.00;;;;5026673;28;20225;-71
2022/01/05 09:46:52;;;;;;;13.50;3.47;;;;;4.40;99620.00;;;;5025713;28;20476;-71
2022/01/05 09:49:40;;;;;;;6.47;3.43;;;;;4.40;99618.00;;;;5037036;28;20984;-73
2022/01/05 09:52:27;;;;;;;11.40;3.33;;;;;4.40;99607.00;;;;5018296;28;20225;-71
2022/01/05 09:55:16;;;;;;;12.00;3.73;;;;;4.40;99615.00;;;;5027074;28;20225;-72
2022/01/05 09:58:03;;;;;;;9.13;3.23;;;;;4.40;99612.00;;;;5024195;28;20724;-71
2022/01/05 10:00:51;;;;;;;10.83;3.63;;;;;4.30;99616.00;;;;5019578;28;20243;-71
2022/01/05 10:03:38;;;;;;;9.00;3.60;;;;;4.30;99613.00;;;;5017189;28;20234;-69
2022/01/05 10:06:24;;;;;;;13.13;4.30;;;;;4.30;99621.00;;;;5019754;28;20712;-71
2022/01/05 10:09:10;;;;;;;6.40;3.50;;;;;4.20;99613.00;;;;5021019;28;20241;-70
2022/01/05 10:11:58;;;;;;;11.07;3.83;;;;;4.20;99618.00;;;;5013816;28;20229;-71
2022/01/05 10:14:46;;;;;;;13.43;3.80;;;;;4.20;99633.00;;;;5018198;28;20241;-66
2022/01/05 10:17:36;;;;;;;13.50;4.10;;;;;4.20;99626.00;;;;5024441;28;20233;-69
2022/01/05 10:20:22;;;;;;;13.60;3.93;;;;;4.30;99625.00;;;;5025816;28;20236;-70
2022/01/05 10:23:08;;;;;;;8.70;3.90;;;;;4.30;99634.00;;;;5022226;28;20229;-69
2022/01/05 10:25:54;;;;;;;10.47;3.80;;;;;4.20;99623.00;;;;5014790;28;20285;-69
2022/01/05 10:28:43;;;;;;;10.93;3.60;;;;;4.20;99628.00;;;;5019681;28;20232;-69
2022/01/05 10:31:32;;;;;;;12.00;4.13;;;;;4.30;99629.00;;;;5025286;28;20236;-72
2022/01/05 10:34:20;;;;;;;13.80;4.53;;;;;4.50;99638.00;;;;5026155;28;20228;-72
2022/01/05 10:37:08;;;;;;;12.07;4.13;;;;;4.40;99594.00;;;;5020625;28;20233;-72
2022/01/05 10:40:06;;;;;;;13.33;4.63;;;;;4.40;99641.00;;;;5020255;28;20240;-68
2022/01/05 10:42:54;;;;;;;11.50;3.80;;;;;4.40;99651.00;;;;5013607;28;20229;-71
2022/01/05 10:45:43;;;;;;;10.40;4.07;;;;;4.40;99653.00;;;;5025415;28;20253;-68
2022/01/05 10:48:30;;;;;;;12.97;3.60;;;;;4.50;99659.00;;;;5024557;28;20296;-70
2022/01/05 10:51:16;;;;;;;10.37;3.60;;;;;4.50;99670.00;;;;5004892;28;20229;-71
2022/01/05 10:54:14;;;;;;;13.17;3.40;;;;;4.50;99654.00;;;;5019913;28;20248;-72
2022/01/05 10:57:12;;;;;;;15.43;3.87;;;;;4.40;99651.00;;;;5019836;28;20239;-69
2022/01/05 10:59:58;;;;;;;10.97;3.70;;;;;4.30;99657.00;;;;5019542;28;20711;-69
2022/01/05 11:02:46;;;;;;;12.10;4.00;;;;;4.30;99652.00;;;;5025229;28;20252;-69
2022/01/05 11:05:32;;;;;;;6.33;3.07;;;;;4.40;99657.00;;;;5025365;28;20295;-69
2022/01/05 11:08:18;;;;;;;10.27;3.43;;;;;4.30;99649.00;;;;5026062;28;20604;-69
2022/01/05 11:11:36;;;;;;;5.37;3.07;;;;;4.30;99659.00;;;;5021181;28;20729;-70
2022/01/05 11:14:29;;;;;;;10.23;3.67;;;;;4.20;99675.00;;;;5020872;28;20295;-71
2022/01/05 11:17:17;;;;;;;9.87;3.87;;;;;4.30;99679.00;;;;5023752;28;20953;-72
2022/01/05 11:20:11;;;;;;;8.77;3.63;;;;;4.20;99682.00;;;;5019818;28;20228;-69
2022/01/05 11:22:57;;;;;;;6.13;3.40;;;;;4.20;99696.00;;;;5020761;28;20300;-71
2022/01/05 11:25:45;;;;;;;9.80;3.70;;;;;4.20;99705.00;;;;5014305;28;20229;-71
2022/01/05 11:28:31;;;;;;;6.73;3.63;;;;;4.10;99717.00;;;;5025682;28;20232;-72
2022/01/05 11:31:18;;;;;;;11.67;4.43;;;;;4.20;99722.00;;;;5022986;28;20226;-71
2022/01/05 11:34:05;;;;;;;8.30;3.90;;;;;4.20;99712.00;;;;5022759;28;20225;-70
2022/01/05 11:36:53;;;;;;;6.27;4.03;;;;;4.20;99716.00;;;;5023862;28;20270;-70
2022/01/05 11:39:43;;;;;;;6.60;3.80;;;;;4.20;99718.00;;;;5018305;28;20652;-68
2022/01/05 11:42:33;;;;;;;9.63;4.27;;;;;4.00;99718.00;;;;5020349;28;20238;-70
2022/01/05 11:45:29;;;;;;;6.07;4.27;;;;;3.90;99722.00;;;;5021515;28;20353;-70
2022/01/05 11:48:22;;;;;;;11.13;3.77;;;;;3.70;99719.00;;;;5033069;28;20237;-71
2022/01/05 11:51:08;;;;;;;8.00;4.30;;;;;3.80;99729.00;;;;5022772;28;20294;-71
2022/01/05 11:54:13;;;;;;;8.17;4.37;;;;;3.80;99738.00;;;;4998093;28;20334;-71
2022/01/05 11:57:07;;;;;;;9.70;4.60;;;;;3.90;99757.00;;;;5000324;28;20889;-70
2022/01/05 12:00:17;;;;;;;6.93;4.00;;;;;3.80;99744.00;;;;4995465;28;20237;-67
2022/01/05 12:03:04;;;;;;;7.80;4.07;;;;;3.90;99760.00;;;;5003074;28;20241;-70
2022/01/05 12:06:06;;;;;;;8.07;4.00;;;;;3.80;99754.00;;;;5011403;28;20242;-71
2022/01/05 12:08:54;;;;;;;8.47;4.30;;;;;3.80;99760.00;;;;4997501;28;21129;-70
2022/01/05 12:11:42;;;;;;;10.43;4.00;;;;;4.00;99762.00;;;;5014350;28;20390;-71
2022/01/05 12:14:46;;;;;;;10.77;4.10;;;;;4.00;99764.00;;;;5011312;28;20227;-69
2022/01/05 12:17:34;;;;;;;9.40;3.70;;;;;4.10;99761.00;;;;5024540;28;20597;-70
2022/01/05 12:20:21;;;;;;;10.30;3.57;;;;;4.10;99776.00;;;;5027157;28;20700;-72
2022/01/05 12:23:18;;;;;;;5.90;2.90;;;;;4.30;99759.00;;;;5015225;28;20589;-70
2022/01/05 12:26:16;;;;;;;8.77;3.10;;;;;4.30;99777.00;;;;5018290;28;20709;-70
2022/01/05 12:29:04;;;;;;;7.40;2.80;;;;;4.30;99774.00;;;;5019508;28;20229;-72
2022/01/05 12:31:58;;;;;;;14.60;3.03;;;;;4.40;99777.00;;;;5018282;28;20280;-69
2022/01/05 12:34:56;;;;;;;6.43;2.57;;;;;4.30;99772.00;;;;5010599;28;20230;-71
2022/01/05 12:37:48;;;;;;;5.73;2.50;;;;;4.40;99772.00;;;;5014183;28;20275;-69
2022/01/05 12:40:36;;;;;;;14.07;3.07;;;;;4.40;99780.00;;;;5017826;28;20301;-69
2022/01/05 12:43:35;;;;;;;12.23;2.63;;;;;4.50;99784.00;;;;5017713;28;20348;-70
2022/01/05 12:46:43;;;;;;;7.50;2.70;;;;;4.60;99779.00;;;;5016242;28;20238;-70
2022/01/05 12:49:34;;;;;;;6.33;2.67;;;;;4.60;99790.00;;;;5017980;28;20268;-71
2022/01/05 12:52:21;;;;;;;7.90;2.80;;;;;4.50;99780.00;;;;5011185;28;20233;-69
2022/01/05 12:55:08;;;;;;;7.87;2.93;;;;;4.60;99795.00;;;;5026101;28;20611;-70
2022/01/05 12:57:55;;;;;;;7.23;2.67;;;;;4.60;99795.00;;;;5029550;28;20241;-70
2022/01/05 13:00:41;;;;;;;10.43;2.60;;;;;4.70;99788.00;;;;5027581;28;20942;-72
2022/01/05 13:03:33;;;;;;;3.50;2.67;;;;;4.60;99789.00;;;;5020060;28;20245;-71
2022/01/05 13:06:21;;;;;;;11.20;3.13;;;;;4.70;99795.00;;;;5024422;28;20320;-71
2022/01/05 13:09:08;;;;;;;10.17;2.83;;;;;4.70;99789.00;;;;5024160;28;20233;-70
2022/01/05 13:11:58;;;;;;;14.73;3.03;;;;;4.70;99784.00;;;;5003042;28;20240;-69
2022/01/05 13:14:46;;;;;;;6.97;2.53;;;;;4.90;99779.00;;;;4995084;28;20820;-70
2022/01/05 13:17:35;;;;;;;7.20;2.33;;;;;4.80;99788.00;;;;4995895;28;20250;-68
2022/01/05 13:20:23;;;;;;;5.70;2.73;;;;;4.80;99779.00;;;;5004404;28;20226;-70
2022/01/05 13:23:09;;;;;;;5.23;2.57;;;;;4.90;99788.00;;;;5010759;28;20796;-70
2022/01/05 13:26:09;;;;;;;5.97;2.60;;;;;5.00;99776.00;;;;5003641;28;20301;-70
2022/01/05 13:28:55;;;;;;;7.23;2.50;;;;;5.10;99791.00;;;;5000791;28;20245;-70
2022/01/05 13:31:53;;;;;;;13.53;2.40;;;;;5.20;99767.00;;;;5005921;28;20300;-70
2022/01/05 13:34:44;;;;;;;7.40;2.80;;;;;5.20;99779.00;;;;5006872;28;20249;-68
2022/01/05 13:37:35;;;;;;;7.13;2.80;;;;;5.20;99798.00;;;;5014193;28;20625;-70
2022/01/05 13:40:24;;;;;;;6.20;2.60;;;;;5.20;99792.00;;;;5002510;28;20332;-70
2022/01/05 13:43:12;;;;;;;7.43;3.07;;;;;5.20;99798.00;;;;5014154;28;20382;-68
2022/01/05 13:46:00;;;;;;;6.60;3.20;;;;;5.30;99823.00;;;;5020265;28;20236;-69
2022/01/05 13:48:46;;;;;;;10.77;3.20;;;;;5.30;99823.00;;;;5021334;28;20721;-70
2022/01/05 13:51:32;;;;;;;9.33;3.10;;;;;5.30;99821.00;;;;5021488;28;20230;-71
2022/01/05 13:54:21;;;;;;;6.83;3.27;;;;;5.30;99828.00;;;;5017328;28;20233;-70
2022/01/05 13:57:09;;;;;;;4.93;2.20;;;;;5.30;99818.00;;;;5034143;28;20611;-70
2022/01/05 13:59:59;;;;;;;8.60;2.17;;;;;5.30;99827.00;;;;5019854;28;20323;-72
2022/01/05 14:02:45;;;;;;;4.83;2.07;;;;;5.30;99846.00;;;;5025646;28;20475;-74
2022/01/05 14:05:33;;;;;;;4.67;2.00;;;;;5.30;99849.00;;;;5027974;28;20232;-69
2022/01/05 14:08:19;;;;;;;5.43;1.80;;;;;5.30;99827.00;;;;5026803;28;21038;-71
2022/01/05 14:11:09;;;;;;;4.53;1.67;;;;;5.30;99829.00;;;;5021984;28;20233;-69
2022/01/05 14:13:57;;;;;;;4.70;1.27;;;;;5.30;99840.00;;;;5019922;28;20728;-71